sensor_id;sensor_type;location;lat;lon;timestamp;temperature;humidity
39881;DHT22;25554;44.954;10.068;2024-03-08T00:02:38;6.20;99.90
39881;DHT22;25554;44.954;10.068;2024-03-08T00:05:09;6.20;99.90
39881;DHT22;25554;44.954;10.068;2024-03-08T00:07:36;6.20;99.90
39881;DHT22;25554;44.954;10.068;2024-03-08T00:10:06;6.20;99.90
39881;DHT22;25554;44.954;10.068;2024-03-08T00:12:41;6.20;99.90
39881;DHT22;25554;44.954;10.068;2024-03-08T00:15:11;6.30;99.90
39881;DHT22;25554;44.954;10.068;2024-03-08T00:17:44;6.30;99.90
39881;DHT22;25554;44.954;10.068;2024-03-08T00:20:10;6.40;99.90
39881;DHT22;25554;44.954;10.068;2024-03-08T00:22:37;6.40;99.90
39881;DHT22;25554;44.954;10.068;2024-03-08T00:25:05;6.50;99.90
39881;DHT22;25554;44.954;10.068;2024-03-08T00:27:31;6.60;99.90
39881;DHT22;25554;44.954;10.068;2024-03-08T00:29:58;6.60;99.90
39881;DHT22;25554;44.954;10.068;2024-03-08T00:32:26;6.50;99.90
39881;DHT22;25554;44.954;10.068;2024-03-08T00:34:54;6.50;99.90
39881;DHT22;25554;44.954;10.068;2024-03-08T00:37:20;6.50;99.90
39881;DHT22;25554;44.954;10.068;2024-03-08T00:39:51;6.50;99.90
39881;DHT22;25554;44.954;10.068;2024-03-08T00:42:19;6.60;99.90
39881;DHT22;25554;44.954;10.068;2024-03-08T00:44:46;6.60;99.90
39881;DHT22;25554;44.954;10.068;2024-03-08T00:47:12;6.70;99.90
39881;DHT22;25554;44.954;10.068;2024-03-08T00:49:40;6.80;99.90
39881;DHT22;25554;44.954;10.068;2024-03-08T00:52:07;6.90;99.90
39881;DHT22;25554;44.954;10.068;2024-03-08T00:54:36;6.90;99.90
39881;DHT22;25554;44.954;10.068;2024-03-08T00:57:03;6.90;99.90
39881;DHT22;25554;44.954;10.068;2024-03-08T00:59:30;6.90;99.90
39881;DHT22;25554;44.954;10.068;2024-03-08T01:02:02;6.90;99.90
39881;DHT22;25554;44.954;10.068;2024-03-08T01:04:28;6.90;99.90
39881;DHT22;25554;44.954;10.068;2024-03-08T01:06:58;6.80;99.90
39881;DHT22;25554;44.954;10.068;2024-03-08T01:09:25;6.80;99.90
39881;DHT22;25554;44.954;10.068;2024-03-08T01:11:56;6.90;99.90
39881;DHT22;25554;44.954;10.068;2024-03-08T01:14:23;6.90;99.90
39881;DHT22;25554;44.954;10.068;2024-03-08T01:16:50;6.90;99.90
39881;DHT22;25554;44.954;10.068;2024-03-08T01:19:16;6.90;99.90
39881;DHT22;25554;44.954;10.068;2024-03-08T01:21:43;7.00;99.90
39881;DHT22;25554;44.954;10.068;2024-03-08T01:24:09;6.80;99.90
39881;DHT22;25554;44.954;10.068;2024-03-08T01:26:36;7.10;99.90
39881;DHT22;25554;44.954;10.068;2024-03-08T01:29:02;7.20;99.90
39881;DHT22;25554;44.954;10.068;2024-03-08T01:31:30;7.20;99.90
39881;DHT22;25554;44.954;10.068;2024-03-08T01:33:57;7.20;99.90
39881;DHT22;25554;44.954;10.068;2024-03-08T01:36:23;7.20;99.90
39881;DHT22;25554;44.954;10.068;2024-03-08T01:38:51;7.20;99.90
39881;DHT22;25554;44.954;10.068;2024-03-08T01:41:18;7.30;99.90
39881;DHT22;25554;44.954;10.068;2024-03-08T01:43:44;7.30;99.90
39881;DHT22;25554;44.954;10.068;2024-03-08T01:46:14;7.30;99.90
39881;DHT22;25554;44.954;10.068;2024-03-08T01:48:42;7.40;99.90
39881;DHT22;25554;44.954;10.068;2024-03-08T01:51:09;7.30;99.90
39881;DHT22;25554;44.954;10.068;2024-03-08T01:53:38;7.30;99.90
39881;DHT22;25554;44.954;10.068;2024-03-08T01:56:06;7.30;99.90
39881;DHT22;25554;44.954;10.068;2024-03-08T01:58:32;7.20;99.90
39881;DHT22;25554;44.954;10.068;2024-03-08T02:00:59;7.30;99.90
39881;DHT22;25554;44.954;10.068;2024-03-08T02:03:26;7.30;99.90
39881;DHT22;25554;44.954;10.068;2024-03-08T02:05:52;7.30;99.90
39881;DHT22;25554;44.954;10.068;2024-03-08T02:08:19;7.30;99.90
39881;DHT22;25554;44.954;10.068;2024-03-08T02:10:48;7.30;99.90
39881;DHT22;25554;44.954;10.068;2024-03-08T02:13:15;7.20;99.90
39881;DHT22;25554;44.954;10.068;2024-03-08T02:18:22;7.20;99.90
39881;DHT22;25554;44.954;10.068;2024-03-08T02:20:55;7.20;99.90
39881;DHT22;25554;44.954;10.068;2024-03-08T02:23:23;7.00;99.90
39881;DHT22;25554;44.954;10.068;2024-03-08T02:25:53;6.90;99.90
39881;DHT22;25554;44.954;10.068;2024-03-08T02:28:20;6.90;99.90
39881;DHT22;25554;44.954;10.068;2024-03-08T02:30:47;6.90;99.90
39881;DHT22;25554;44.954;10.068;2024-03-08T02:33:14;6.90;99.90
39881;DHT22;25554;44.954;10.068;2024-03-08T02:35:48;6.80;99.90
39881;DHT22;25554;44.954;10.068;2024-03-08T02:38:15;6.80;99.90
39881;DHT22;25554;44.954;10.068;2024-03-08T02:40:46;6.80;99.90
39881;DHT22;25554;44.954;10.068;2024-03-08T02:43:13;6.80;99.90
39881;DHT22;25554;44.954;10.068;2024-03-08T02:45:41;6.90;99.90
39881;DHT22;25554;44.954;10.068;2024-03-08T02:48:12;6.80;99.90
39881;DHT22;25554;44.954;10.068;2024-03-08T02:50:38;6.80;99.90
39881;DHT22;25554;44.954;10.068;2024-03-08T02:53:11;6.80;99.90
39881;DHT22;25554;44.954;10.068;2024-03-08T02:55:41;6.80;99.90
39881;DHT22;25554;44.954;10.068;2024-03-08T02:58:08;6.80;99.90
39881;DHT22;25554;44.954;10.068;2024-03-08T03:00:39;6.70;99.90
39881;DHT22;25554;44.954;10.068;2024-03-08T03:03:07;6.70;99.90
39881;DHT22;25554;44.954;10.068;2024-03-08T03:05:33;6.60;99.90
39881;DHT22;25554;44.954;10.068;2024-03-08T03:07:59;6.60;99.90
39881;DHT22;25554;44.954;10.068;2024-03-08T03:10:26;6.60;99.90
39881;DHT22;25554;44.954;10.068;2024-03-08T03:12:52;6.60;99.90
39881;DHT22;25554;44.954;10.068;2024-03-08T03:15:19;6.50;99.90
39881;DHT22;25554;44.954;10.068;2024-03-08T03:17:49;6.60;99.90
39881;DHT22;25554;44.954;10.068;2024-03-08T03:20:17;6.50;99.90
39881;DHT22;25554;44.954;10.068;2024-03-08T03:22:52;6.60;99.90
39881;DHT22;25554;44.954;10.068;2024-03-08T03:25:19;6.50;99.90
39881;DHT22;25554;44.954;10.068;2024-03-08T03:27:54;6.50;99.90
39881;DHT22;25554;44.954;10.068;2024-03-08T03:30:23;6.50;99.90
39881;DHT22;25554;44.954;10.068;2024-03-08T03:32:52;6.50;99.90
39881;DHT22;25554;44.954;10.068;2024-03-08T03:35:22;6.50;99.90
39881;DHT22;25554;44.954;10.068;2024-03-08T03:37:49;6.50;99.90
39881;DHT22;25554;44.954;10.068;2024-03-08T03:40:28;6.50;99.90
39881;DHT22;25554;44.954;10.068;2024-03-08T03:42:55;6.50;99.90
39881;DHT22;25554;44.954;10.068;2024-03-08T03:45:22;6.50;99.90
39881;DHT22;25554;44.954;10.068;2024-03-08T03:47:49;6.50;99.90
39881;DHT22;25554;44.954;10.068;2024-03-08T03:50:16;6.50;99.90
39881;DHT22;25554;44.954;10.068;2024-03-08T03:52:42;6.50;99.90
39881;DHT22;25554;44.954;10.068;2024-03-08T03:55:08;6.50;99.90
39881;DHT22;25554;44.954;10.068;2024-03-08T03:57:37;6.50;99.90
39881;DHT22;25554;44.954;10.068;2024-03-08T04:00:04;6.50;99.90
39881;DHT22;25554;44.954;10.068;2024-03-08T04:02:39;6.60;99.90
39881;DHT22;25554;44.954;10.068;2024-03-08T04:05:06;6.60;99.90
39881;DHT22;25554;44.954;10.068;2024-03-08T04:07:34;6.60;99.90
39881;DHT22;25554;44.954;10.068;2024-03-08T04:10:03;6.70;99.90
39881;DHT22;25554;44.954;10.068;2024-03-08T04:12:33;6.70;99.90
39881;DHT22;25554;44.954;10.068;2024-03-08T04:14:59;6.70;99.90
39881;DHT22;25554;44.954;10.068;2024-03-08T04:17:26;6.70;99.90
39881;DHT22;25554;44.954;10.068;2024-03-08T04:19:52;6.70;99.90
39881;DHT22;25554;44.954;10.068;2024-03-08T04:22:19;6.70;99.90
39881;DHT22;25554;44.954;10.068;2024-03-08T04:24:46;6.70;99.90
39881;DHT22;25554;44.954;10.068;2024-03-08T04:27:13;6.70;99.90
39881;DHT22;25554;44.954;10.068;2024-03-08T04:29:40;6.70;99.90
39881;DHT22;25554;44.954;10.068;2024-03-08T04:32:09;6.70;99.90
39881;DHT22;25554;44.954;10.068;2024-03-08T04:34:36;6.80;99.90
39881;DHT22;25554;44.954;10.068;2024-03-08T04:37:03;6.90;99.90
39881;DHT22;25554;44.954;10.068;2024-03-08T04:39:31;6.90;99.90
39881;DHT22;25554;44.954;10.068;2024-03-08T04:42:00;6.90;99.90
39881;DHT22;25554;44.954;10.068;2024-03-08T04:44:30;6.90;99.90
39881;DHT22;25554;44.954;10.068;2024-03-08T04:46:56;6.90;99.90
39881;DHT22;25554;44.954;10.068;2024-03-08T04:49:23;6.90;99.90
39881;DHT22;25554;44.954;10.068;2024-03-08T04:51:49;7.00;99.90
39881;DHT22;25554;44.954;10.068;2024-03-08T04:54:15;7.00;99.90
39881;DHT22;25554;44.954;10.068;2024-03-08T04:56:41;7.00;99.90
39881;DHT22;25554;44.954;10.068;2024-03-08T04:59:08;7.00;99.90
39881;DHT22;25554;44.954;10.068;2024-03-08T05:01:34;7.00;99.90
39881;DHT22;25554;44.954;10.068;2024-03-08T05:04:04;7.00;99.90
39881;DHT22;25554;44.954;10.068;2024-03-08T05:06:31;7.00;99.90
39881;DHT22;25554;44.954;10.068;2024-03-08T05:08:57;7.00;99.90
39881;DHT22;25554;44.954;10.068;2024-03-08T05:11:24;7.00;99.90
39881;DHT22;25554;44.954;10.068;2024-03-08T05:13:50;7.00;99.90
39881;DHT22;25554;44.954;10.068;2024-03-08T05:16:16;6.90;99.90
39881;DHT22;25554;44.954;10.068;2024-03-08T05:18:42;6.90;99.90
39881;DHT22;25554;44.954;10.068;2024-03-08T05:21:09;6.90;99.90
39881;DHT22;25554;44.954;10.068;2024-03-08T05:23:35;7.00;99.90
39881;DHT22;25554;44.954;10.068;2024-03-08T05:26:01;6.70;99.90
39881;DHT22;25554;44.954;10.068;2024-03-08T05:28:28;6.90;99.90
39881;DHT22;25554;44.954;10.068;2024-03-08T05:30:54;7.00;99.90
39881;DHT22;25554;44.954;10.068;2024-03-08T05:33:22;7.00;99.90
39881;DHT22;25554;44.954;10.068;2024-03-08T05:35:49;6.90;99.90
39881;DHT22;25554;44.954;10.068;2024-03-08T05:38:16;6.90;99.90
39881;DHT22;25554;44.954;10.068;2024-03-08T05:40:42;6.90;99.90
39881;DHT22;25554;44.954;10.068;2024-03-08T05:43:09;6.90;99.90
39881;DHT22;25554;44.954;10.068;2024-03-08T05:45:35;6.90;99.90
39881;DHT22;25554;44.954;10.068;2024-03-08T05:48:01;6.90;99.90
39881;DHT22;25554;44.954;10.068;2024-03-08T05:50:28;6.90;99.90
39881;DHT22;25554;44.954;10.068;2024-03-08T05:52:54;6.90;99.90
39881;DHT22;25554;44.954;10.068;2024-03-08T05:55:21;7.00;99.90
39881;DHT22;25554;44.954;10.068;2024-03-08T05:57:48;7.00;99.90
39881;DHT22;25554;44.954;10.068;2024-03-08T06:00:15;7.00;99.90
39881;DHT22;25554;44.954;10.068;2024-03-08T06:02:42;7.00;99.90
39881;DHT22;25554;44.954;10.068;2024-03-08T06:05:11;7.10;99.90
39881;DHT22;25554;44.954;10.068;2024-03-08T06:07:38;7.10;99.90
39881;DHT22;25554;44.954;10.068;2024-03-08T06:10:10;7.20;99.90
39881;DHT22;25554;44.954;10.068;2024-03-08T06:12:38;7.20;99.90
39881;DHT22;25554;44.954;10.068;2024-03-08T06:15:08;7.20;99.90
39881;DHT22;25554;44.954;10.068;2024-03-08T06:17:38;7.20;99.90
39881;DHT22;25554;44.954;10.068;2024-03-08T06:20:05;7.20;99.90
39881;DHT22;25554;44.954;10.068;2024-03-08T06:22:39;7.20;99.90
39881;DHT22;25554;44.954;10.068;2024-03-08T06:25:08;7.30;99.90
39881;DHT22;25554;44.954;10.068;2024-03-08T06:27:34;7.20;99.90
39881;DHT22;25554;44.954;10.068;2024-03-08T06:30:01;7.20;99.90
39881;DHT22;25554;44.954;10.068;2024-03-08T06:32:27;7.20;99.90
39881;DHT22;25554;44.954;10.068;2024-03-08T06:34:54;7.30;99.90
39881;DHT22;25554;44.954;10.068;2024-03-08T06:37:20;7.30;99.90
39881;DHT22;25554;44.954;10.068;2024-03-08T06:39:48;7.30;99.90
39881;DHT22;25554;44.954;10.068;2024-03-08T06:42:14;7.30;99.90
39881;DHT22;25554;44.954;10.068;2024-03-08T06:44:41;7.30;99.90
39881;DHT22;25554;44.954;10.068;2024-03-08T06:47:15;7.30;99.90
39881;DHT22;25554;44.954;10.068;2024-03-08T06:49:42;7.40;99.90
39881;DHT22;25554;44.954;10.068;2024-03-08T06:52:12;7.40;99.90
39881;DHT22;25554;44.954;10.068;2024-03-08T06:54:39;7.40;99.90
39881;DHT22;25554;44.954;10.068;2024-03-08T06:57:05;7.50;99.90
39881;DHT22;25554;44.954;10.068;2024-03-08T06:59:32;7.70;99.90
39881;DHT22;25554;44.954;10.068;2024-03-08T07:01:58;7.80;99.90
39881;DHT22;25554;44.954;10.068;2024-03-08T07:04:27;7.90;99.90
39881;DHT22;25554;44.954;10.068;2024-03-08T07:06:56;7.90;99.90
39881;DHT22;25554;44.954;10.068;2024-03-08T07:09:24;8.00;99.90
39881;DHT22;25554;44.954;10.068;2024-03-08T07:11:51;8.10;99.90
39881;DHT22;25554;44.954;10.068;2024-03-08T07:14:24;8.10;99.90
39881;DHT22;25554;44.954;10.068;2024-03-08T07:16:50;8.10;99.90
39881;DHT22;25554;44.954;10.068;2024-03-08T07:19:20;8.20;99.90
39881;DHT22;25554;44.954;10.068;2024-03-08T07:21:47;8.20;99.90
39881;DHT22;25554;44.954;10.068;2024-03-08T07:24:14;8.30;99.90
39881;DHT22;25554;44.954;10.068;2024-03-08T07:26:43;8.30;99.90
39881;DHT22;25554;44.954;10.068;2024-03-08T07:29:10;8.30;99.90
39881;DHT22;25554;44.954;10.068;2024-03-08T07:31:36;8.40;99.90
39881;DHT22;25554;44.954;10.068;2024-03-08T07:34:32;8.40;99.90
39881;DHT22;25554;44.954;10.068;2024-03-08T07:36:59;8.40;99.90
39881;DHT22;25554;44.954;10.068;2024-03-08T07:39:25;8.50;99.90
39881;DHT22;25554;44.954;10.068;2024-03-08T07:41:52;8.60;99.90
39881;DHT22;25554;44.954;10.068;2024-03-08T07:44:19;8.60;99.90
39881;DHT22;25554;44.954;10.068;2024-03-08T07:46:45;8.60;99.90
39881;DHT22;25554;44.954;10.068;2024-03-08T07:49:12;8.60;99.90
39881;DHT22;25554;44.954;10.068;2024-03-08T07:51:38;8.70;99.90
39881;DHT22;25554;44.954;10.068;2024-03-08T07:54:04;8.70;99.90
39881;DHT22;25554;44.954;10.068;2024-03-08T07:56:31;8.70;99.90
39881;DHT22;25554;44.954;10.068;2024-03-08T07:58:57;8.70;99.90
39881;DHT22;25554;44.954;10.068;2024-03-08T08:01:23;8.70;99.90
39881;DHT22;25554;44.954;10.068;2024-03-08T08:03:49;8.80;99.90
39881;DHT22;25554;44.954;10.068;2024-03-08T08:06:16;8.90;99.90
39881;DHT22;25554;44.954;10.068;2024-03-08T08:08:43;8.90;99.90
39881;DHT22;25554;44.954;10.068;2024-03-08T08:11:10;8.90;99.90
39881;DHT22;25554;44.954;10.068;2024-03-08T08:13:43;9.00;99.90
39881;DHT22;25554;44.954;10.068;2024-03-08T08:16:09;9.00;99.90
39881;DHT22;25554;44.954;10.068;2024-03-08T08:18:39;9.10;99.90
39881;DHT22;25554;44.954;10.068;2024-03-08T08:21:06;9.10;99.90
39881;DHT22;25554;44.954;10.068;2024-03-08T08:23:33;9.20;99.90
39881;DHT22;25554;44.954;10.068;2024-03-08T08:25:59;9.20;99.90
39881;DHT22;25554;44.954;10.068;2024-03-08T08:28:25;9.20;99.90
39881;DHT22;25554;44.954;10.068;2024-03-08T08:30:51;9.20;99.90
39881;DHT22;25554;44.954;10.068;2024-03-08T08:33:18;9.20;99.90
39881;DHT22;25554;44.954;10.068;2024-03-08T08:35:44;9.20;99.90
39881;DHT22;25554;44.954;10.068;2024-03-08T08:38:10;9.20;99.90
39881;DHT22;25554;44.954;10.068;2024-03-08T08:40:37;9.20;99.90
39881;DHT22;25554;44.954;10.068;2024-03-08T08:43:04;9.20;99.90
39881;DHT22;25554;44.954;10.068;2024-03-08T08:45:33;9.20;99.90
39881;DHT22;25554;44.954;10.068;2024-03-08T08:47:59;9.20;99.90
39881;DHT22;25554;44.954;10.068;2024-03-08T08:50:26;9.30;99.90
39881;DHT22;25554;44.954;10.068;2024-03-08T08:52:54;9.30;99.90
39881;DHT22;25554;44.954;10.068;2024-03-08T08:55:21;9.40;99.90
39881;DHT22;25554;44.954;10.068;2024-03-08T08:57:52;9.40;99.90
39881;DHT22;25554;44.954;10.068;2024-03-08T09:00:21;9.30;99.90
39881;DHT22;25554;44.954;10.068;2024-03-08T09:02:50;9.30;99.90
39881;DHT22;25554;44.954;10.068;2024-03-08T09:05:17;9.40;99.90
39881;DHT22;25554;44.954;10.068;2024-03-08T09:07:46;9.40;99.90
39881;DHT22;25554;44.954;10.068;2024-03-08T09:10:12;9.40;99.90
39881;DHT22;25554;44.954;10.068;2024-03-08T09:12:40;9.40;99.90
39881;DHT22;25554;44.954;10.068;2024-03-08T09:15:06;9.40;99.90
39881;DHT22;25554;44.954;10.068;2024-03-08T09:17:37;9.40;99.90
39881;DHT22;25554;44.954;10.068;2024-03-08T09:20:07;9.40;99.90
39881;DHT22;25554;44.954;10.068;2024-03-08T09:22:35;9.50;99.90
39881;DHT22;25554;44.954;10.068;2024-03-08T09:25:01;9.60;99.90
39881;DHT22;25554;44.954;10.068;2024-03-08T09:27:28;9.60;99.90
39881;DHT22;25554;44.954;10.068;2024-03-08T09:29:54;9.60;99.90
39881;DHT22;25554;44.954;10.068;2024-03-08T09:32:20;9.60;99.90
39881;DHT22;25554;44.954;10.068;2024-03-08T09:34:48;9.70;99.90
39881;DHT22;25554;44.954;10.068;2024-03-08T09:37:14;9.80;99.90
39881;DHT22;25554;44.954;10.068;2024-03-08T09:39:41;9.70;99.90
39881;DHT22;25554;44.954;10.068;2024-03-08T09:42:07;9.80;99.90
39881;DHT22;25554;44.954;10.068;2024-03-08T09:44:34;9.70;99.90
39881;DHT22;25554;44.954;10.068;2024-03-08T09:47:01;9.80;99.90
39881;DHT22;25554;44.954;10.068;2024-03-08T09:49:30;9.80;99.90
39881;DHT22;25554;44.954;10.068;2024-03-08T09:51:56;9.90;99.90
39881;DHT22;25554;44.954;10.068;2024-03-08T09:54:23;9.90;99.90
39881;DHT22;25554;44.954;10.068;2024-03-08T09:56:51;9.90;99.90
39881;DHT22;25554;44.954;10.068;2024-03-08T09:59:18;9.90;99.90
39881;DHT22;25554;44.954;10.068;2024-03-08T10:01:53;9.90;99.90
39881;DHT22;25554;44.954;10.068;2024-03-08T10:04:23;9.90;99.90
39881;DHT22;25554;44.954;10.068;2024-03-08T10:06:50;9.90;99.90
39881;DHT22;25554;44.954;10.068;2024-03-08T10:09:16;10.00;99.90
39881;DHT22;25554;44.954;10.068;2024-03-08T10:11:42;10.00;99.90
39881;DHT22;25554;44.954;10.068;2024-03-08T10:14:09;10.10;99.90
39881;DHT22;25554;44.954;10.068;2024-03-08T10:16:38;10.30;99.90
39881;DHT22;25554;44.954;10.068;2024-03-08T10:19:05;10.30;99.90
39881;DHT22;25554;44.954;10.068;2024-03-08T10:21:32;10.30;99.90
39881;DHT22;25554;44.954;10.068;2024-03-08T10:23:59;10.40;99.90
39881;DHT22;25554;44.954;10.068;2024-03-08T10:26:25;10.50;99.90
39881;DHT22;25554;44.954;10.068;2024-03-08T10:28:52;10.70;99.90
39881;DHT22;25554;44.954;10.068;2024-03-08T10:31:20;10.70;99.90
39881;DHT22;25554;44.954;10.068;2024-03-08T10:33:46;10.80;99.90
39881;DHT22;25554;44.954;10.068;2024-03-08T10:36:13;10.80;99.90
39881;DHT22;25554;44.954;10.068;2024-03-08T10:38:41;10.80;99.90
39881;DHT22;25554;44.954;10.068;2024-03-08T10:41:09;10.90;99.90
39881;DHT22;25554;44.954;10.068;2024-03-08T10:49:17;11.00;99.90
39881;DHT22;25554;44.954;10.068;2024-03-08T10:51:44;11.10;99.90
39881;DHT22;25554;44.954;10.068;2024-03-08T10:54:12;11.00;99.90
39881;DHT22;25554;44.954;10.068;2024-03-08T10:56:39;10.90;99.90
39881;DHT22;25554;44.954;10.068;2024-03-08T10:59:08;10.80;99.90
39881;DHT22;25554;44.954;10.068;2024-03-08T11:01:34;11.00;99.90
39881;DHT22;25554;44.954;10.068;2024-03-08T11:04:04;10.90;99.90
39881;DHT22;25554;44.954;10.068;2024-03-08T11:06:42;11.00;99.90
39881;DHT22;25554;44.954;10.068;2024-03-08T11:09:36;11.00;99.90
39881;DHT22;25554;44.954;10.068;2024-03-08T11:12:26;10.90;99.90
39881;DHT22;25554;44.954;10.068;2024-03-08T11:14:57;10.80;99.90
39881;DHT22;25554;44.954;10.068;2024-03-08T11:19:58;10.70;99.90
39881;DHT22;25554;44.954;10.068;2024-03-08T11:22:28;10.70;99.90
39881;DHT22;25554;44.954;10.068;2024-03-08T11:25:02;10.70;99.90
39881;DHT22;25554;44.954;10.068;2024-03-08T11:27:32;10.80;99.90
39881;DHT22;25554;44.954;10.068;2024-03-08T11:30:06;10.90;99.90
39881;DHT22;25554;44.954;10.068;2024-03-08T11:32:50;10.90;99.90
39881;DHT22;25554;44.954;10.068;2024-03-08T11:35:22;10.80;99.90
39881;DHT22;25554;44.954;10.068;2024-03-08T11:37:51;10.80;99.90
39881;DHT22;25554;44.954;10.068;2024-03-08T11:40:18;10.70;99.90
39881;DHT22;25554;44.954;10.068;2024-03-08T11:42:46;10.60;99.90
39881;DHT22;25554;44.954;10.068;2024-03-08T11:45:15;10.60;99.90
39881;DHT22;25554;44.954;10.068;2024-03-08T11:47:45;10.60;99.90
39881;DHT22;25554;44.954;10.068;2024-03-08T11:50:15;10.60;99.90
39881;DHT22;25554;44.954;10.068;2024-03-08T11:52:42;10.60;99.90
39881;DHT22;25554;44.954;10.068;2024-03-08T11:55:09;10.60;99.90
39881;DHT22;25554;44.954;10.068;2024-03-08T11:57:38;10.60;99.90
39881;DHT22;25554;44.954;10.068;2024-03-08T12:00:05;10.60;99.90
39881;DHT22;25554;44.954;10.068;2024-03-08T12:02:34;10.70;99.90
39881;DHT22;25554;44.954;10.068;2024-03-08T12:05:06;10.80;99.90
39881;DHT22;25554;44.954;10.068;2024-03-08T12:07:35;10.80;99.90
39881;DHT22;25554;44.954;10.068;2024-03-08T12:10:16;10.80;99.90
39881;DHT22;25554;44.954;10.068;2024-03-08T12:12:47;10.90;99.90
39881;DHT22;25554;44.954;10.068;2024-03-08T12:15:18;10.90;99.90
39881;DHT22;25554;44.954;10.068;2024-03-08T12:17:49;10.90;99.90
39881;DHT22;25554;44.954;10.068;2024-03-08T12:20:24;10.90;99.90
39881;DHT22;25554;44.954;10.068;2024-03-08T12:22:53;10.90;99.90
39881;DHT22;25554;44.954;10.068;2024-03-08T12:25:26;10.80;99.90
39881;DHT22;25554;44.954;10.068;2024-03-08T12:27:54;10.90;99.90
39881;DHT22;25554;44.954;10.068;2024-03-08T12:32:58;11.10;99.90
39881;DHT22;25554;44.954;10.068;2024-03-08T12:35:29;11.20;99.90
39881;DHT22;25554;44.954;10.068;2024-03-08T12:37:57;11.20;99.90
39881;DHT22;25554;44.954;10.068;2024-03-08T12:40:31;11.00;99.90
39881;DHT22;25554;44.954;10.068;2024-03-08T12:43:01;10.90;99.90
39881;DHT22;25554;44.954;10.068;2024-03-08T12:45:28;10.90;99.90
39881;DHT22;25554;44.954;10.068;2024-03-08T12:47:55;10.70;99.90
39881;DHT22;25554;44.954;10.068;2024-03-08T12:50:22;10.80;99.90
39881;DHT22;25554;44.954;10.068;2024-03-08T12:52:51;10.80;99.90
39881;DHT22;25554;44.954;10.068;2024-03-08T12:55:18;10.80;99.90
39881;DHT22;25554;44.954;10.068;2024-03-08T12:57:46;10.90;99.90
39881;DHT22;25554;44.954;10.068;2024-03-08T13:00:13;10.90;99.90
39881;DHT22;25554;44.954;10.068;2024-03-08T13:02:46;11.00;99.90
39881;DHT22;25554;44.954;10.068;2024-03-08T13:05:12;11.00;99.90
39881;DHT22;25554;44.954;10.068;2024-03-08T13:07:41;11.00;99.90
39881;DHT22;25554;44.954;10.068;2024-03-08T13:10:14;11.00;99.90
39881;DHT22;25554;44.954;10.068;2024-03-08T13:12:43;11.00;99.90
39881;DHT22;25554;44.954;10.068;2024-03-08T13:15:10;11.00;99.90
39881;DHT22;25554;44.954;10.068;2024-03-08T13:17:49;10.90;99.90
39881;DHT22;25554;44.954;10.068;2024-03-08T13:20:16;10.90;99.90
39881;DHT22;25554;44.954;10.068;2024-03-08T13:22:43;10.90;99.90
39881;DHT22;25554;44.954;10.068;2024-03-08T13:25:09;11.00;99.90
39881;DHT22;25554;44.954;10.068;2024-03-08T13:27:40;11.00;99.90
39881;DHT22;25554;44.954;10.068;2024-03-08T13:30:10;11.00;99.90
39881;DHT22;25554;44.954;10.068;2024-03-08T13:32:40;11.00;99.90
39881;DHT22;25554;44.954;10.068;2024-03-08T13:35:10;10.90;99.90
39881;DHT22;25554;44.954;10.068;2024-03-08T13:37:42;10.90;99.90
39881;DHT22;25554;44.954;10.068;2024-03-08T13:40:09;10.90;99.90
39881;DHT22;25554;44.954;10.068;2024-03-08T13:42:37;10.90;99.90
39881;DHT22;25554;44.954;10.068;2024-03-08T13:45:06;10.80;99.90
39881;DHT22;25554;44.954;10.068;2024-03-08T13:47:35;10.80;99.90
39881;DHT22;25554;44.954;10.068;2024-03-08T13:50:02;10.80;99.90
39881;DHT22;25554;44.954;10.068;2024-03-08T13:52:28;10.70;99.90
39881;DHT22;25554;44.954;10.068;2024-03-08T13:54:55;10.80;99.90
39881;DHT22;25554;44.954;10.068;2024-03-08T13:57:22;10.70;99.90
39881;DHT22;25554;44.954;10.068;2024-03-08T13:59:51;10.80;99.90
39881;DHT22;25554;44.954;10.068;2024-03-08T14:02:17;10.80;99.90
39881;DHT22;25554;44.954;10.068;2024-03-08T14:04:43;10.70;99.90
39881;DHT22;25554;44.954;10.068;2024-03-08T14:07:10;10.70;99.90
39881;DHT22;25554;44.954;10.068;2024-03-08T14:09:37;10.70;99.90
39881;DHT22;25554;44.954;10.068;2024-03-08T14:12:09;10.70;99.90
39881;DHT22;25554;44.954;10.068;2024-03-08T14:14:35;10.60;99.90
39881;DHT22;25554;44.954;10.068;2024-03-08T14:17:02;10.60;99.90
39881;DHT22;25554;44.954;10.068;2024-03-08T14:19:30;10.60;99.90
39881;DHT22;25554;44.954;10.068;2024-03-08T14:22:05;10.60;99.90
39881;DHT22;25554;44.954;10.068;2024-03-08T14:24:31;10.60;99.90
39881;DHT22;25554;44.954;10.068;2024-03-08T14:27:02;10.50;99.90
39881;DHT22;25554;44.954;10.068;2024-03-08T14:29:29;10.40;99.90
39881;DHT22;25554;44.954;10.068;2024-03-08T14:31:58;10.40;99.90
39881;DHT22;25554;44.954;10.068;2024-03-08T14:34:25;10.30;99.90
39881;DHT22;25554;44.954;10.068;2024-03-08T14:36:56;10.30;99.90
39881;DHT22;25554;44.954;10.068;2024-03-08T14:39:22;10.30;99.90
39881;DHT22;25554;44.954;10.068;2024-03-08T14:41:52;10.30;99.90
39881;DHT22;25554;44.954;10.068;2024-03-08T14:44:21;10.30;99.90
39881;DHT22;25554;44.954;10.068;2024-03-08T14:46:52;10.30;99.90
39881;DHT22;25554;44.954;10.068;2024-03-08T14:49:19;10.30;99.90
39881;DHT22;25554;44.954;10.068;2024-03-08T14:51:45;10.30;99.90
39881;DHT22;25554;44.954;10.068;2024-03-08T14:54:11;10.30;99.90
39881;DHT22;25554;44.954;10.068;2024-03-08T14:56:39;10.30;99.90
39881;DHT22;25554;44.954;10.068;2024-03-08T14:59:08;10.20;99.90
39881;DHT22;25554;44.954;10.068;2024-03-08T15:01:35;10.20;99.90
39881;DHT22;25554;44.954;10.068;2024-03-08T15:04:02;10.20;99.90
39881;DHT22;25554;44.954;10.068;2024-03-08T15:06:35;10.10;99.90
39881;DHT22;25554;44.954;10.068;2024-03-08T15:09:04;10.10;99.90
39881;DHT22;25554;44.954;10.068;2024-03-08T15:11:41;10.10;99.90
39881;DHT22;25554;44.954;10.068;2024-03-08T15:14:09;10.10;99.90
39881;DHT22;25554;44.954;10.068;2024-03-08T15:16:38;10.10;99.90
39881;DHT22;25554;44.954;10.068;2024-03-08T15:19:06;10.00;99.90
39881;DHT22;25554;44.954;10.068;2024-03-08T15:21:32;10.00;99.90
39881;DHT22;25554;44.954;10.068;2024-03-08T15:24:03;10.00;99.90
39881;DHT22;25554;44.954;10.068;2024-03-08T15:26:30;10.00;99.90
39881;DHT22;25554;44.954;10.068;2024-03-08T15:28:57;10.00;99.90
39881;DHT22;25554;44.954;10.068;2024-03-08T15:31:24;9.90;99.90
39881;DHT22;25554;44.954;10.068;2024-03-08T15:33:51;9.90;99.90
39881;DHT22;25554;44.954;10.068;2024-03-08T15:36:33;9.90;99.90
39881;DHT22;25554;44.954;10.068;2024-03-08T15:39:00;9.90;99.90
39881;DHT22;25554;44.954;10.068;2024-03-08T15:41:27;9.90;99.90
39881;DHT22;25554;44.954;10.068;2024-03-08T15:43:53;9.90;99.90
39881;DHT22;25554;44.954;10.068;2024-03-08T15:46:21;9.80;99.90